Time;durP1;ratioP1;P1;durP2;ratioP2;P2;SDS_P1;SDS_P2;PMS_P1;PMS_P2;Temp;Humidity;BMP_temperature;BMP_pressure;BME280_temperature;BME280_humidity;BME280_pressure;Samples;Min_cycle;Max_cycle;Signal;HPM_P1;HPM_P2
2024/01/26 00:00:27;;;;;;;14.03;7.13;;;3.80;99.90;;;-141.84;90.00;82847.66;5093155;28;20218;-55
2024/01/26 00:02:56;;;;;;;18.07;6.87;;;3.80;99.90;;;-141.84;89.63;81262.06;5073895;28;20689;-55
2024/01/26 00:05:25;;;;;;;21.27;6.83;;;3.80;99.90;;;-141.84;88.01;75189.69;5096188;28;20753;-52
2024/01/26 00:07:53;;;;;;;15.13;6.43;;;3.80;99.90;;;-141.84;89.37;79148.88;5092764;28;20216;-55
2024/01/26 00:10:23;;;;;;;12.77;5.80;;;3.80;99.90;;;-141.84;90.40;82583.34;5092578;28;20250;-54
2024/01/26 00:12:51;;;;;;;19.43;6.70;;;3.80;99.90;;;-141.84;89.87;81526.28;5092886;28;20728;-53
2024/01/26 00:15:22;;;;;;;20.03;6.97;;;3.80;99.90;;;-141.84;89.80;81526.28;5089609;28;20744;-54
2024/01/26 00:17:50;;;;;;;19.00;7.03;;;3.80;99.90;;;-141.84;87.82;74134.56;5088645;28;20184;-55
2024/01/26 00:20:18;;;;;;;16.93;6.57;;;3.70;99.90;;;-141.84;89.36;79412.97;5092188;28;20202;-54
2024/01/26 00:22:54;;;;;;;13.37;6.90;;;3.80;99.90;;;-141.84;91.20;85491.75;5083509;28;20225;-55
2024/01/26 00:25:23;;;;;;;15.47;7.10;;;3.70;99.90;;;-141.84;92.39;89990.66;5092124;28;20295;-50
2024/01/26 00:27:51;;;;;;;14.10;6.67;;;3.70;99.90;;;-141.84;92.90;91049.97;5092712;28;20225;-54
2024/01/26 00:30:21;;;;;;;19.77;7.33;;;3.70;99.90;;;-141.84;92.08;89725.88;5092627;28;20272;-54
2024/01/26 00:32:49;;;;;;;16.80;7.00;;;3.70;99.90;;;-141.84;92.42;89725.88;5092577;28;20281;-54
2024/01/26 00:35:18;;;;;;;20.30;8.07;;;3.70;99.90;;;-141.84;89.53;80997.84;5094320;28;20774;-53
2024/01/26 00:37:46;;;;;;;18.73;7.33;;;3.70;99.90;;;-141.84;90.24;83376.34;5092340;28;20289;-52
2024/01/26 00:40:15;;;;;;;15.23;6.73;;;3.80;99.90;;;-141.84;87.46;75189.69;5093416;28;20307;-53
2024/01/26 00:42:44;;;;;;;18.80;7.77;;;3.90;99.90;;;-141.84;85.45;64387.81;5092830;28;20306;-54
2024/01/26 00:45:12;;;;;;;14.00;5.90;;;4.00;99.90;;;-141.84;86.60;68599.69;5093136;28;20314;-55
2024/01/26 00:47:42;;;;;;;15.30;7.17;;;4.00;99.90;;;-141.84;86.36;69389.94;5093156;28;20278;-53
2024/01/26 00:50:10;;;;;;;14.77;6.30;;;4.00;99.90;;;-141.84;86.62;67546.31;5086177;28;20222;-52
2024/01/26 00:52:38;;;;;;;16.77;7.07;;;3.90;99.90;;;-141.84;88.61;77036.81;5093186;28;20303;-54
2024/01/26 00:55:08;;;;;;;17.67;6.83;;;3.90;99.90;;;-141.84;88.21;75453.50;5090601;28;20638;-52
2024/01/26 00:57:36;;;;;;;14.97;6.50;;;3.90;99.90;;;-141.84;88.26;75189.69;5092156;28;20235;-55
2024/01/26 01:00:07;;;;;;;14.20;6.20;;;3.90;99.90;;;-141.84;86.47;69653.38;5091808;28;20228;-54
2024/01/26 01:02:35;;;;;;;14.20;6.33;;;4.00;99.90;;;-141.84;85.36;64387.81;5099307;28;20269;-55
2024/01/26 01:05:06;;;;;;;16.43;6.40;;;4.00;99.90;;;-141.84;84.37;57290.34;5092978;28;20280;-61
2024/01/26 01:07:36;;;;;;;14.17;6.20;;;4.10;99.90;;;-141.84;84.37;57553.00;5092252;28;20310;-55
2024/01/26 01:10:05;;;;;;;19.43;6.07;;;4.20;99.90;;;-141.84;83.26;50205.56;5091678;28;20254;-53
2024/01/26 01:12:33;;;;;;;12.80;5.70;;;4.20;99.90;;;-141.84;83.72;53352.78;5092346;28;20260;-52
2024/01/26 01:15:03;;;;;;;16.90;6.83;;;4.20;99.90;;;-141.84;83.91;54664.88;5091498;28;20281;-56
2024/01/26 01:17:33;;;;;;;18.13;6.47;;;4.10;99.90;;;-141.84;84.74;59129.22;5083791;28;20966;-55
2024/01/26 01:20:04;;;;;;;14.53;6.03;;;4.10;99.90;;;-141.84;84.65;59391.97;5091795;28;20210;-54
2024/01/26 01:22:34;;;;;;;14.57;6.03;;;4.00;99.90;;;-141.84;84.49;57553.00;5089159;28;20250;-52
2024/01/26 01:25:02;;;;;;;14.87;5.80;;;4.10;99.90;;;-141.84;85.62;63861.66;5092301;28;20250;-52
2024/01/26 01:27:31;;;;;;;14.03;5.50;;;4.10;99.90;;;-141.84;84.92;62020.59;5091282;28;20253;-54
2024/01/26 01:30:00;;;;;;;13.60;5.80;;;4.10;99.90;;;-141.84;83.82;54664.88;5091371;28;20634;-55
2024/01/26 01:32:29;;;;;;;13.97;5.73;;;4.10;99.90;;;-141.84;84.89;59917.56;5091846;28;20210;-51
2024/01/26 01:34:57;;;;;;;11.47;5.90;;;4.10;99.90;;;-141.84;84.63;58341.03;5030724;28;20336;-53
2024/01/26 01:37:26;;;;;;;14.47;6.13;;;4.10;99.90;;;-141.84;84.41;57553.00;5091179;28;20258;-52
2024/01/26 01:39:55;;;;;;;13.80;5.77;;;4.10;99.90;;;-141.84;83.95;54664.88;5091284;28;20275;-50
2024/01/26 01:42:23;;;;;;;14.33;5.93;;;4.00;99.90;;;-141.84;84.03;54664.88;5090727;28;20247;-52
2024/01/26 01:44:52;;;;;;;12.53;5.93;;;4.00;99.90;;;-141.84;84.73;59129.22;5082994;28;20260;-54
2024/01/26 01:47:21;;;;;;;15.03;5.40;;;4.00;99.90;;;-141.84;85.36;62020.59;5091515;28;20195;-54
2024/01/26 01:49:49;;;;;;;22.43;6.50;;;3.90;99.90;;;-141.84;84.78;59129.22;5090965;28;20321;-55
2024/01/26 01:52:20;;;;;;;15.03;6.27;;;3.90;99.90;;;-141.84;84.89;61757.66;5090611;28;20974;-52
2024/01/26 01:54:50;;;;;;;16.53;6.07;;;3.90;99.90;;;-141.84;83.00;49681.28;5089901;28;20309;-54
2024/01/26 01:57:23;;;;;;;17.57;6.33;;;4.00;99.90;;;-141.84;83.31;51254.38;5093598;28;20301;-52
2024/01/26 01:59:52;;;;;;;12.90;5.40;;;4.00;99.90;;;-141.84;81.56;39375.41;5089437;28;20203;-53
2024/01/26 02:02:23;;;;;;;13.73;6.10;;;4.10;99.90;;;-141.84;80.00;29037.41;5090184;28;20192;-48
2024/01/26 02:04:52;;;;;;;14.93;6.30;;;4.20;99.90;;;-141.84;79.72;27491.50;5089229;28;20219;-51
2024/01/26 02:07:20;;;;;;;11.93;5.60;;;4.20;99.90;;;-141.84;79.08;24682.34;5090160;28;20227;-55
2024/01/26 02:09:48;;;;;;;13.80;5.70;;;4.30;99.90;;;-141.84;78.73;23984.44;5086515;28;20303;-49
2024/01/26 02:12:17;;;;;;;15.10;5.90;;;4.40;99.90;;;-141.84;77.52;21307.91;5091549;28;20275;-54
2024/01/26 02:14:46;;;;;;;14.60;6.20;;;4.50;99.90;;;-141.84;78.02;21779.63;5091867;28;20202;-50
2024/01/26 02:17:15;;;;;;;15.20;7.10;;;4.50;99.90;;;-141.84;77.10;20862.69;5093660;28;20825;-52
2024/01/26 02:19:43;;;;;;;21.50;5.60;;;4.60;99.90;;;-141.84;77.51;21289.59;5089059;28;21671;-56
2024/01/26 02:22:11;;;;;;;15.43;5.57;;;4.40;99.90;;;-141.84;76.74;20480.50;5090267;28;20261;-50
2024/01/26 02:24:41;;;;;;;14.97;5.77;;;4.60;99.90;;;-141.84;76.02;19840.25;5090654;28;20289;-53
2024/01/26 02:27:09;;;;;;;16.47;5.73;;;4.60;99.90;;;-141.84;76.83;20163.41;5090547;28;20656;-52
2024/01/26 02:29:38;;;;;;;15.00;5.63;;;4.70;99.90;;;-141.84;78.23;22755.78;5091180;28;20276;-54
2024/01/26 02:32:09;;;;;;;10.27;5.13;;;4.60;99.90;;;-141.84;77.07;20569.94;5091676;28;20203;-53
2024/01/26 02:34:37;;;;;;;15.53;5.60;;;4.60;99.90;;;-141.84;79.09;23913.22;5090092;28;20219;-57
2024/01/26 02:37:06;;;;;;;12.83;5.50;;;4.60;99.90;;;-141.84;78.86;23927.47;5091263;28;20233;-57
2024/01/26 02:39:34;;;;;;;12.83;5.30;;;4.50;99.90;;;-141.84;76.69;20673.63;5090862;28;20255;-55
2024/01/26 02:42:04;;;;;;;14.63;5.47;;;4.60;99.90;;;-141.84;74.63;19084.28;5090765;28;20258;-54
2024/01/26 02:44:33;;;;;;;14.23;5.13;;;4.60;99.90;;;-141.84;75.00;19171.66;5091158;28;20191;-53
2024/01/26 02:47:02;;;;;;;11.47;4.87;;;4.70;99.90;;;-141.84;74.14;18978.63;5091224;28;20290;-53
2024/01/26 02:49:32;;;;;;;14.33;5.80;;;4.80;99.90;;;-141.84;75.87;19441.94;5091880;28;20695;-62
2024/01/26 02:52:01;;;;;;;11.67;5.03;;;4.80;99.90;;;-141.84;77.97;21749.13;5091216;28;20235;-62
2024/01/26 02:54:29;;;;;;;16.60;5.33;;;4.70;99.90;;;-141.84;76.72;20679.72;5090347;28;20318;-61
2024/01/26 02:56:58;;;;;;;9.33;4.97;;;4.70;99.90;;;-141.84;74.95;19194.03;5090604;28;20300;-62
2024/01/26 02:59:28;;;;;;;12.47;5.27;;;4.70;99.90;;;-141.84;75.42;19362.69;5091223;28;20201;-62
2024/01/26 03:01:56;;;;;;;14.83;5.13;;;4.60;99.90;;;-141.84;76.72;20210.16;5090890;28;20211;-63
2024/01/26 03:04:24;;;;;;;15.80;5.40;;;4.60;99.90;;;-141.84;76.61;19901.22;5089484;28;20250;-62
2024/01/26 03:06:55;;;;;;;15.37;5.53;;;4.60;99.90;;;-141.84;76.43;20090.25;5081463;28;20234;-62
2024/01/26 03:09:24;;;;;;;11.40;4.83;;;4.60;99.90;;;-141.84;75.68;19500.88;5089603;28;20223;-62
2024/01/26 03:11:54;;;;;;;14.90;5.80;;;4.70;99.90;;;-141.84;76.95;20313.84;5090331;28;20234;-62
2024/01/26 03:14:22;;;;;;;11.63;4.73;;;4.60;99.90;;;-141.84;77.64;21598.66;5090448;28;20214;-63
2024/01/26 03:16:52;;;;;;;13.60;5.03;;;4.50;99.90;;;-141.84;75.77;19474.44;5089543;28;20335;-62
2024/01/26 03:19:20;;;;;;;11.17;5.07;;;4.60;99.90;;;-141.84;76.54;19980.50;5093470;28;20731;-64
2024/01/26 03:21:49;;;;;;;14.07;4.80;;;4.50;99.90;;;-141.84;78.13;22041.94;5093642;28;20247;-61
2024/01/26 03:24:17;;;;;;;12.63;5.40;;;4.40;99.90;;;-141.84;76.33;20256.91;5093581;28;20302;-62
2024/01/26 03:26:45;;;;;;;12.50;5.23;;;4.60;99.90;;;-141.84;74.86;19171.66;5093296;28;20566;-61
2024/01/26 03:29:14;;;;;;;10.77;4.73;;;4.80;99.90;;;-141.84;75.15;19261.06;5094545;28;20217;-61
2024/01/26 03:31:43;;;;;;;13.67;5.13;;;4.70;99.90;;;-141.84;75.21;19352.53;5094821;28;20795;-61
2024/01/26 03:34:12;;;;;;;14.43;5.10;;;4.60;99.90;;;-141.84;73.57;18907.50;5085115;28;20251;-62
2024/01/26 03:36:41;;;;;;;14.07;4.87;;;4.70;99.90;;;-141.84;73.52;18842.50;5093767;28;20306;-62
2024/01/26 03:39:10;;;;;;;10.60;5.13;;;4.80;99.90;;;-141.84;75.77;19525.25;5093109;28;20306;-61
2024/01/26 03:41:41;;;;;;;11.67;4.80;;;4.70;99.90;;;-141.84;75.09;19344.41;5093733;28;20195;-62
2024/01/26 03:44:12;;;;;;;9.50;4.40;;;4.70;99.90;;;-141.84;74.47;19135.09;5094270;28;20188;-61
2024/01/26 03:46:42;;;;;;;12.53;5.00;;;4.80;99.90;;;-141.84;75.88;19622.81;5093423;28;20265;-61
2024/01/26 03:49:12;;;;;;;10.77;4.70;;;4.70;99.90;;;-141.84;75.31;19368.78;5092992;28;20708;-61
2024/01/26 03:51:40;;;;;;;14.83;5.23;;;4.80;99.90;;;-141.84;75.03;19210.28;5090796;28;20227;-61
2024/01/26 03:54:08;;;;;;;11.63;4.97;;;4.90;99.90;;;-141.84;73.13;18872.97;5093518;28;20599;-62
2024/01/26 03:56:37;;;;;;;9.73;4.73;;;5.00;99.90;;;-141.84;73.92;18964.41;5089605;28;20570;-61
2024/01/26 03:59:06;;;;;;;14.03;5.20;;;4.90;99.90;;;-141.84;75.09;19352.53;5094923;28;20227;-63
2024/01/26 04:01:34;;;;;;;12.07;4.53;;;5.00;99.90;;;-141.84;72.96;18834.38;5084386;28;20322;-62
2024/01/26 04:04:02;;;;;;;14.60;5.67;;;5.00;99.90;;;-141.84;75.29;19370.81;5086726;28;20250;-61
2024/01/26 04:06:40;;;;;;;9.40;4.67;;;5.00;99.90;;;-141.84;76.81;20269.13;5039462;28;20236;-61
2024/01/26 04:09:10;;;;;;;12.37;5.50;;;5.00;99.90;;;-141.84;77.77;21787.75;5081493;28;20220;-63
2024/01/26 04:11:38;;;;;;;14.13;4.87;;;5.00;99.90;;;-141.84;74.57;19313.91;5041530;28;20193;-60
2024/01/26 04:14:07;;;;;;;13.20;5.03;;;5.00;99.90;;;-141.84;74.88;19224.50;5093628;28;20590;-62
2024/01/26 04:16:35;;;;;;;9.87;4.50;;;5.10;99.90;;;-141.84;74.96;19366.75;5092370;28;20267;-62
2024/01/26 04:19:03;;;;;;;9.30;4.03;;;5.10;99.90;;;-141.84;74.59;19200.13;5092407;28;20227;-61
2024/01/26 04:21:33;;;;;;;12.67;4.37;;;5.20;99.90;;;-141.84;75.73;19702.06;5082941;28;20227;-62
2024/01/26 04:24:03;;;;;;;10.53;4.93;;;5.20;99.90;;;-141.84;73.85;19035.53;5092346;28;20308;-63
2024/01/26 04:26:31;;;;;;;13.73;5.00;;;5.30;99.90;;;-141.84;74.92;19358.63;5092712;28;20672;-66
2024/01/26 04:28:59;;;;;;;12.17;4.90;;;5.30;99.90;;;-141.84;75.39;19574.03;5093019;28;20218;-61
2024/01/26 04:31:27;;;;;;;14.37;5.70;;;5.30;99.90;;;-141.84;76.07;19980.50;5091929;28;20226;-63
2024/01/26 04:33:56;;;;;;;15.20;5.20;;;5.30;99.90;;;-141.84;74.41;19218.41;5092105;28;20308;-62
2024/01/26 04:36:24;;;;;;;13.20;5.20;;;5.40;99.90;;;-141.84;73.25;18950.19;5091558;28;20303;-61
2024/01/26 04:38:52;;;;;;;11.33;4.83;;;5.40;99.90;;;-141.84;73.59;19000.97;5091726;28;21167;-61
2024/01/26 04:41:22;;;;;;;11.43;4.93;;;5.50;99.90;;;-141.84;75.05;19425.69;5093251;28;20625;-62
2024/01/26 04:43:51;;;;;;;11.23;4.67;;;5.50;99.90;;;-141.84;75.91;19860.59;5092788;28;20229;-67
2024/01/26 04:46:19;;;;;;;12.87;4.63;;;5.40;99.90;;;-141.84;74.84;19498.84;5100327;28;20211;-62
2024/01/26 04:48:47;;;;;;;12.83;5.40;;;5.50;99.90;;;-141.84;75.42;19612.63;5092006;28;20281;-62
2024/01/26 04:51:16;;;;;;;14.10;5.30;;;5.30;99.90;;;-141.84;75.55;19795.53;5092124;28;20232;-62
2024/01/26 04:53:44;;;;;;;13.70;4.60;;;5.60;99.90;;;-141.84;76.18;20197.97;5093100;28;20204;-61
2024/01/26 04:56:12;;;;;;;10.43;4.60;;;5.60;99.90;;;-141.84;76.67;20789.50;5091977;28;20204;-61
2024/01/26 04:58:42;;;;;;;15.50;5.03;;;5.60;99.90;;;-141.84;77.44;22322.56;5086967;28;20232;-61
2024/01/26 05:01:15;;;;;;;15.40;4.97;;;5.60;99.90;;;-141.84;78.07;23477.88;5091438;28;20239;-61
2024/01/26 05:03:43;;;;;;;13.33;4.77;;;5.60;99.90;;;-141.84;78.29;24181.78;5066444;28;20727;-61
2024/01/26 05:06:11;;;;;;;12.23;4.63;;;5.60;99.90;;;-141.84;78.87;26025.59;5092401;28;20235;-61
2024/01/26 05:08:41;;;;;;;15.67;4.90;;;5.60;99.90;;;-141.84;80.71;37666.16;5088624;28;20208;-63
2024/01/26 05:11:09;;;;;;;13.13;5.30;;;5.50;99.90;;;-141.84;81.29;40370.25;5092425;28;20212;-61
2024/01/26 05:13:37;;;;;;;13.93;5.33;;;5.60;99.90;;;-141.84;81.61;46536.97;5092170;28;20224;-61
2024/01/26 05:16:07;;;;;;;14.10;5.07;;;5.50;99.90;;;-141.84;81.83;45489.41;5091113;28;20948;-62
2024/01/26 05:18:35;;;;;;;14.83;5.70;;;5.60;99.90;;;-141.84;83.72;57553.00;5091455;28;20319;-62
2024/01/26 05:21:04;;;;;;;13.07;5.60;;;5.60;99.90;;;-141.84;82.09;48894.97;5091230;28;20633;-62
2024/01/26 05:23:33;;;;;;;11.67;5.67;;;5.60;99.90;;;-141.84;83.83;56502.53;5092801;28;20275;-62
2024/01/26 05:26:01;;;;;;;14.17;5.37;;;5.60;99.90;;;-141.84;83.39;57290.34;5091287;28;20220;-63
2024/01/26 05:28:30;;;;;;;16.10;5.00;;;5.70;99.90;;;-141.84;84.34;60968.94;5091687;28;20307;-62
2024/01/26 05:30:58;;;;;;;19.00;5.90;;;5.60;99.90;;;-141.84;84.23;63072.50;5082998;28;20288;-62
2024/01/26 05:33:28;;;;;;;14.60;5.60;;;5.70;99.90;;;-141.84;83.41;58866.47;5091158;28;20308;-62
2024/01/26 05:35:56;;;;;;;15.63;6.03;;;5.70;99.90;;;-141.84;82.59;51254.38;5090363;28;20705;-62
2024/01/26 05:38:24;;;;;;;14.80;5.03;;;5.70;99.90;;;-141.84;85.10;66229.97;5092291;28;20206;-62
2024/01/26 05:40:52;;;;;;;13.20;5.60;;;5.70;99.90;;;-141.84;86.81;73870.81;5090924;28;20634;-64
2024/01/26 05:43:21;;;;;;;12.53;5.30;;;5.70;99.90;;;-141.84;87.51;76772.88;5091038;28;20220;-62
2024/01/26 05:45:49;;;;;;;16.30;5.87;;;5.60;99.90;;;-141.84;88.71;82054.78;5091557;28;20594;-61
2024/01/26 05:48:17;;;;;;;12.90;5.43;;;5.70;99.90;;;-141.84;87.65;78356.72;5090975;28;20220;-61
2024/01/26 05:50:48;;;;;;;16.23;5.70;;;5.70;99.90;;;-141.84;85.84;72552.38;5089096;28;20216;-61
2024/01/26 05:53:16;;;;;;;14.10;5.57;;;5.90;99.90;;;-141.84;88.06;78620.75;5093242;28;20187;-62
2024/01/26 05:55:44;;;;;;;11.83;5.10;;;5.80;99.90;;;-141.84;89.11;84169.50;5091439;28;20711;-62
2024/01/26 05:58:12;;;;;;;11.90;5.00;;;5.80;99.90;;;-141.84;90.75;88402.22;5091789;28;20305;-62
2024/01/26 06:00:41;;;;;;;16.87;5.50;;;5.80;99.90;;;-141.84;92.50;93434.41;5091394;28;20223;-63
2024/01/26 06:03:09;;;;;;;11.67;5.63;;;5.70;99.90;;;-141.84;92.44;94229.53;5090408;28;20230;-65
2024/01/26 06:05:37;;;;;;;10.20;4.93;;;5.80;99.90;;;-141.84;91.57;91314.81;5089914;28;20240;-64
2024/01/26 06:08:07;;;;;;;19.80;6.17;;;5.80;99.90;;;-141.84;92.85;94494.59;5091993;28;20227;-61
2024/01/26 06:10:36;;;;;;;12.37;5.77;;;5.80;99.90;;;-141.84;94.01;97942.19;5088144;28;20224;-63
2024/01/26 06:13:05;;;;;;;10.93;4.63;;;5.80;99.90;;;-141.84;93.69;96881.06;5091281;28;20280;-63
2024/01/26 06:15:33;;;;;;;13.27;5.53;;;5.80;99.90;;;-141.84;94.82;100065.22;5090172;28;20262;-61
2024/01/26 06:18:02;;;;;;;15.33;5.33;;;5.80;99.90;;;-141.84;96.13;102720.59;5084021;28;20314;-61
2024/01/26 06:20:31;;;;;;;15.93;6.00;;;5.80;99.90;;;-141.84;97.78;105909.34;5090884;28;20238;-62
2024/01/26 06:23:00;;;;;;;17.40;5.87;;;5.70;99.90;;;-141.84;98.62;107504.66;5089319;28;20290;-61
2024/01/26 06:25:32;;;;;;;12.83;5.53;;;5.80;99.90;;;-141.84;100.00;110164.91;5088805;28;20720;-61
2024/01/26 06:28:01;;;;;;;18.50;6.30;;;5.80;99.90;;;-141.84;99.62;110431.03;5085789;28;20299;-65
2024/01/26 06:30:29;;;;;;;11.03;5.50;;;5.90;99.90;;;-141.84;99.77;110164.91;5090134;28;20277;-62
2024/01/26 06:32:57;;;;;;;14.97;5.90;;;5.90;99.90;;;-141.84;99.07;109366.66;5090560;28;20940;-62
2024/01/26 06:35:25;;;;;;;13.43;6.00;;;5.90;99.90;;;-141.84;100.00;113359.50;5089165;28;20540;-61
2024/01/26 06:37:53;;;;;;;16.73;5.83;;;5.90;99.90;;;-141.84;100.00;116556.59;5081097;28;20349;-62
2024/01/26 06:40:22;;;;;;;12.47;5.50;;;5.80;99.90;;;-141.84;100.00;117356.25;5087974;28;20654;-61
2024/01/26 06:42:51;;;;;;;12.07;5.20;;;5.90;99.90;;;-141.84;100.00;116556.59;5088353;28;20697;-61
2024/01/26 06:45:20;;;;;;;15.27;6.13;;;5.90;99.90;;;-141.84;100.00;117356.25;5088209;28;20216;-61
2024/01/26 06:47:48;;;;;;;18.40;7.23;;;5.90;99.90;;;-141.84;100.00;117356.25;5090349;28;20301;-61
2024/01/26 06:50:16;;;;;;;12.50;6.03;;;6.00;99.90;;;-141.84;100.00;117889.44;5091562;28;20210;-62
2024/01/26 06:52:44;;;;;;;13.63;5.73;;;6.10;99.90;;;-141.84;100.00;117356.25;5092079;28;20231;-62
2024/01/26 06:55:13;;;;;;;10.90;5.63;;;6.10;99.90;;;-141.84;100.00;116556.59;5095115;28;20325;-62
2024/01/26 06:57:41;;;;;;;10.47;5.50;;;6.10;99.90;;;-141.84;100.00;118156.06;5094492;28;20227;-62
2024/01/26 07:00:13;;;;;;;12.63;5.83;;;6.10;99.90;;;-141.84;100.00;116556.59;5094845;28;20226;-61
2024/01/26 07:02:41;;;;;;;15.37;6.07;;;6.20;99.90;;;-141.84;100.00;115224.16;5087205;28;20785;-61
2024/01/26 07:05:10;;;;;;;14.83;6.33;;;6.20;99.90;;;-141.84;100.00;115757.06;5093113;28;20319;-61
2024/01/26 07:07:38;;;;;;;10.70;5.67;;;6.30;99.90;;;-141.84;100.00;115224.16;5093463;28;20735;-62
2024/01/26 07:10:07;;;;;;;15.03;5.93;;;6.40;99.90;;;-141.84;100.00;117356.25;5094018;28;20227;-62
2024/01/26 07:12:36;;;;;;;11.50;5.20;;;6.20;99.90;;;-141.84;100.00;117622.84;5093988;28;20231;-61
2024/01/26 07:15:05;;;;;;;11.00;5.67;;;6.30;99.90;;;-141.84;100.00;116556.59;5085954;28;20224;-62
2024/01/26 07:17:35;;;;;;;9.17;4.87;;;6.30;99.90;;;-141.84;100.00;116290.06;5095188;28;20715;-61
2024/01/26 07:20:04;;;;;;;13.93;5.63;;;6.30;99.90;;;-141.84;100.00;114691.31;5094596;28;20211;-61
2024/01/26 07:22:32;;;;;;;11.03;5.13;;;6.40;99.90;;;-141.84;100.00;113892.16;5094025;28;20240;-62
2024/01/26 07:25:00;;;;;;;11.10;5.13;;;6.40;99.90;;;-141.84;100.00;112294.34;5093605;28;20242;-62
2024/01/26 07:27:29;;;;;;;11.13;4.73;;;6.50;99.90;;;-141.84;99.73;111495.69;5093435;28;20315;-62
2024/01/26 07:29:57;;;;;;;10.30;4.60;;;6.50;99.90;;;-141.84;98.33;108302.56;5093549;28;20720;-62
2024/01/26 07:32:25;;;;;;;7.50;4.00;;;6.60;99.90;;;-141.84;100.00;112826.88;5094107;28;20212;-62
2024/01/26 07:34:55;;;;;;;11.43;4.40;;;6.60;99.90;;;-141.84;98.59;109366.66;5097622;28;20219;-62
2024/01/26 07:37:23;;;;;;;7.23;4.43;;;6.60;99.90;;;-141.84;97.94;108568.56;5092307;28;20219;-61
2024/01/26 07:39:51;;;;;;;10.97;4.57;;;6.60;99.90;;;-141.84;97.83;108302.56;5087316;28;20215;-62
2024/01/26 07:42:20;;;;;;;9.53;4.03;;;6.70;99.90;;;-141.84;97.35;107504.66;5094044;28;20705;-62
2024/01/26 07:44:51;;;;;;;6.30;3.67;;;6.70;99.90;;;-141.84;97.54;108036.56;5094022;28;20241;-63
2024/01/26 07:47:20;;;;;;;7.80;4.50;;;6.50;99.90;;;-141.84;93.66;100330.69;5095407;28;20624;-62
2024/01/26 07:49:54;;;;;;;5.50;3.63;;;6.80;99.90;;;-141.84;92.90;98207.50;5086062;28;20222;-61
2024/01/26 07:52:23;;;;;;;7.40;3.97;;;6.80;99.90;;;-141.84;95.63;103517.56;5038162;28;20225;-61
2024/01/26 07:54:55;;;;;;;7.23;3.90;;;6.80;99.90;;;-141.84;95.33;103251.88;5089219;28;20219;-61
2024/01/26 07:57:25;;;;;;;4.70;3.50;;;6.80;99.90;;;-141.84;96.29;105377.72;5086511;28;20314;-61
2024/01/26 07:59:55;;;;;;;7.43;3.40;;;6.80;99.90;;;-141.84;94.22;102189.38;5093705;28;20204;-61
2024/01/26 08:02:24;;;;;;;6.20;3.50;;;6.80;99.90;;;-141.84;95.06;102189.38;5091366;28;20206;-62
2024/01/26 08:04:55;;;;;;;7.43;3.53;;;6.80;99.90;;;-141.84;97.00;106972.81;5092068;28;20228;-62
2024/01/26 08:07:24;;;;;;;5.43;3.43;;;6.80;99.90;;;-141.84;96.69;106175.19;5096526;28;20220;-53
2024/01/26 08:09:55;;;;;;;4.53;3.03;;;6.80;99.90;;;-141.84;92.40;98738.19;5097669;28;20242;-50
2024/01/26 08:12:23;;;;;;;4.70;3.47;;;7.00;99.90;;;-141.84;91.05;94494.59;5097626;28;20239;-55
2024/01/26 08:15:15;;;;;;;5.60;3.27;;;7.10;99.90;;;-141.84;90.78;92374.47;5090585;28;20249;-53
2024/01/26 08:17:44;;;;;;;5.13;3.17;;;7.20;99.90;;;-141.84;88.75;86020.75;5093488;28;20192;-53
2024/01/26 08:20:15;;;;;;;4.77;3.20;;;7.30;99.90;;;-141.84;88.11;84962.78;5097821;28;20203;-54
2024/01/26 08:22:45;;;;;;;5.23;2.93;;;7.30;99.90;;;-141.84;87.46;82583.34;5086692;28;20220;-55
2024/01/26 08:25:15;;;;;;;3.93;2.60;;;7.30;99.90;;;-141.84;87.32;82583.34;5088964;28;20977;-54
2024/01/26 08:27:44;;;;;;;4.60;3.30;;;7.40;99.90;;;-141.84;86.55;78620.75;5093912;28;20223;-54
2024/01/26 08:30:16;;;;;;;4.70;3.20;;;7.50;99.90;;;-141.84;88.88;87343.63;5091762;28;20288;-54
2024/01/26 08:32:45;;;;;;;4.03;3.00;;;7.50;99.90;;;-141.84;87.87;83905.09;5093216;28;20631;-55
2024/01/26 08:35:15;;;;;;;4.67;3.07;;;7.50;99.90;;;-141.84;87.14;80997.84;5097620;28;20192;-53
2024/01/26 08:37:45;;;;;;;4.33;2.90;;;7.60;99.90;;;-141.84;87.61;84169.50;5090134;28;20252;-51
2024/01/26 08:40:16;;;;;;;5.17;3.50;;;7.60;99.90;;;-141.84;86.25;76508.97;5089614;28;20243;-51
2024/01/26 08:42:45;;;;;;;5.23;3.10;;;7.60;99.90;;;-141.84;86.68;80205.34;5050412;28;20220;-55
2024/01/26 08:45:15;;;;;;;4.13;3.00;;;7.70;99.90;;;-141.84;86.71;80733.66;5094593;28;20248;-55
2024/01/26 08:47:43;;;;;;;3.83;2.77;;;7.80;99.90;;;-141.84;87.34;82319.06;5093348;28;20189;-54
2024/01/26 08:50:15;;;;;;;5.40;3.20;;;7.80;99.90;;;-141.84;86.50;78356.72;5097325;28;20252;-61
2024/01/26 08:52:45;;;;;;;6.00;3.23;;;7.80;99.90;;;-141.84;86.46;78884.81;5096080;28;20260;-61
2024/01/26 08:55:16;;;;;;;3.77;2.77;;;7.80;99.90;;;-141.84;86.53;79148.88;5081124;28;20223;-62
2024/01/26 08:57:45;;;;;;;5.00;3.10;;;7.80;99.90;;;-141.84;86.39;78884.81;5093063;28;20227;-61
2024/01/26 09:00:16;;;;;;;5.00;3.23;;;7.80;99.90;;;-141.84;85.91;77828.72;5081557;28;20235;-62
2024/01/26 09:02:44;;;;;;;4.70;3.10;;;7.90;99.90;;;-141.84;85.47;74662.09;5083938;28;20181;-62
2024/01/26 09:05:15;;;;;;;3.83;3.40;;;8.00;99.90;;;-141.84;84.67;73079.69;5096430;28;20303;-61
2024/01/26 09:07:45;;;;;;;3.67;2.93;;;8.10;99.90;;;-141.84;83.16;66493.19;5095575;28;20713;-62
2024/01/26 09:10:15;;;;;;;4.23;3.60;;;8.20;99.90;;;-141.84;83.68;67546.31;5095894;28;20277;-61
2024/01/26 09:12:46;;;;;;;3.07;2.77;;;8.20;99.90;;;-141.84;84.23;69916.81;5091243;28;20219;-66
2024/01/26 09:15:15;;;;;;;3.60;2.77;;;8.30;99.90;;;-141.84;83.34;68072.97;5084603;28;20236;-61
2024/01/26 09:17:43;;;;;;;5.97;2.70;;;8.30;99.90;;;-141.84;84.07;69653.38;5091611;28;20279;-62
2024/01/26 09:20:12;;;;;;;3.63;2.70;;;8.40;99.90;;;-141.84;85.88;77828.72;5091433;28;20593;-62
2024/01/26 09:22:41;;;;;;;3.73;3.10;;;8.40;99.90;;;-141.84;85.90;78356.72;5090498;28;20219;-61
2024/01/26 09:25:11;;;;;;;4.80;3.00;;;8.50;99.90;;;-141.84;82.60;64124.72;5088184;28;20224;-62
2024/01/26 09:27:39;;;;;;;4.67;2.80;;;8.50;99.90;;;-141.84;81.38;56765.13;5086105;28;20252;-62
2024/01/26 09:30:09;;;;;;;3.77;2.67;;;8.70;99.90;;;-141.84;81.96;58866.47;5080375;28;20722;-62
2024/01/26 09:32:38;;;;;;;3.90;2.87;;;8.70;99.90;;;-141.84;81.52;57290.34;5065495;28;20297;-62
2024/01/26 09:35:07;;;;;;;5.63;3.07;;;8.80;99.90;;;-141.84;81.42;57027.72;5085619;28;20200;-62
2024/01/26 09:37:36;;;;;;;4.43;3.10;;;8.80;99.90;;;-141.84;80.37;51254.38;5090760;28;20716;-61
2024/01/26 09:40:06;;;;;;;3.70;3.10;;;8.90;99.90;;;-141.84;80.83;52828.09;5090232;28;20281;-62
2024/01/26 09:42:36;;;;;;;4.00;3.20;;;8.90;99.90;;;-141.84;81.95;59917.56;5090593;28;20232;-63
2024/01/26 09:45:06;;;;;;;3.50;3.00;;;8.90;99.90;;;-141.84;81.38;58603.75;5090523;28;20232;-62
2024/01/26 09:47:36;;;;;;;3.87;2.83;;;8.90;99.90;;;-141.84;81.89;59917.56;5082769;28;20573;-62
2024/01/26 09:50:07;;;;;;;4.70;2.53;;;9.00;99.90;;;-141.84;79.73;49157.03;5090554;28;20200;-62
2024/01/26 09:52:36;;;;;;;4.53;2.67;;;9.00;99.90;;;-141.84;80.01;49681.28;5090399;28;20231;-62
2024/01/26 09:55:06;;;;;;;2.97;2.67;;;9.20;99.90;;;-141.84;79.72;46536.97;5090509;28;20223;-62
2024/01/26 09:57:37;;;;;;;4.03;3.47;;;9.20;99.90;;;-141.84;78.95;41563.59;5090770;28;20247;-62
2024/01/26 10:00:10;;;;;;;2.40;2.20;;;9.30;99.90;;;-141.84;79.51;46275.03;5090279;28;20274;-62
2024/01/26 10:02:38;;;;;;;3.20;2.30;;;9.50;99.90;;;-141.84;78.22;37063.94;5090254;28;20188;-60
2024/01/26 10:05:08;;;;;;;3.30;2.30;;;9.60;99.90;;;-141.84;77.69;33016.00;5090534;28;20236;-61
2024/01/26 10:07:38;;;;;;;3.03;2.47;;;9.60;99.90;;;-141.84;77.87;32597.97;5091356;28;20645;-62
2024/01/26 10:10:10;;;;;;;3.10;2.50;;;9.60;99.90;;;-141.84;78.98;42231.94;5089651;28;20297;-63
2024/01/26 10:12:39;;;;;;;3.17;2.33;;;9.60;99.90;;;-141.84;79.20;43133.44;5090118;28;20228;-61